sensor_id;sensor_type;location;lat;lon;timestamp;P1;durP1;ratioP1;P2;durP2;ratioP2
15159;SDS011;7680;48.800;9.680;2022-07-06T00:00:52;4.80;;;3.40;;
15159;SDS011;7680;48.800;9.680;2022-07-06T00:03:25;3.60;;;3.38;;
15159;SDS011;7680;48.800;9.680;2022-07-06T00:05:59;3.95;;;3.60;;
15159;SDS011;7680;48.800;9.680;2022-07-06T00:08:32;4.60;;;3.58;;
15159;SDS011;7680;48.800;9.680;2022-07-06T00:11:06;3.60;;;3.40;;
15159;SDS011;7680;48.800;9.680;2022-07-06T00:13:40;4.13;;;3.90;;
15159;SDS011;7680;48.800;9.680;2022-07-06T00:16:13;3.63;;;3.42;;
15159;SDS011;7680;48.800;9.680;2022-07-06T00:18:46;3.78;;;3.58;;
15159;SDS011;7680;48.800;9.680;2022-07-06T00:21:19;3.65;;;3.42;;
15159;SDS011;7680;48.800;9.680;2022-07-06T00:23:52;4.20;;;3.80;;
15159;SDS011;7680;48.800;9.680;2022-07-06T00:26:27;3.80;;;3.60;;
15159;SDS011;7680;48.800;9.680;2022-07-06T00:29:00;3.75;;;3.47;;
15159;SDS011;7680;48.800;9.680;2022-07-06T00:31:33;4.22;;;3.92;;
15159;SDS011;7680;48.800;9.680;2022-07-06T00:34:06;4.55;;;3.80;;
15159;SDS011;7680;48.800;9.680;2022-07-06T00:36:39;3.80;;;3.50;;
15159;SDS011;7680;48.800;9.680;2022-07-06T00:39:13;3.85;;;3.65;;
15159;SDS011;7680;48.800;9.680;2022-07-06T00:41:47;3.72;;;3.50;;
15159;SDS011;7680;48.800;9.680;2022-07-06T00:44:20;3.25;;;3.00;;
15159;SDS011;7680;48.800;9.680;2022-07-06T00:46:54;4.05;;;3.72;;
15159;SDS011;7680;48.800;9.680;2022-07-06T00:49:27;3.90;;;3.70;;
15159;SDS011;7680;48.800;9.680;2022-07-06T00:52:18;4.30;;;4.00;;
15159;SDS011;7680;48.800;9.680;2022-07-06T00:54:51;4.10;;;3.80;;
15159;SDS011;7680;48.800;9.680;2022-07-06T00:57:26;4.28;;;3.97;;
15159;SDS011;7680;48.800;9.680;2022-07-06T01:00:00;4.57;;;4.18;;
15159;SDS011;7680;48.800;9.680;2022-07-06T01:02:34;4.13;;;3.92;;
15159;SDS011;7680;48.800;9.680;2022-07-06T01:05:09;4.20;;;3.88;;
15159;SDS011;7680;48.800;9.680;2022-07-06T01:07:45;4.25;;;3.95;;
15159;SDS011;7680;48.800;9.680;2022-07-06T01:10:21;3.85;;;3.65;;
15159;SDS011;7680;48.800;9.680;2022-07-06T01:12:56;4.38;;;4.07;;
15159;SDS011;7680;48.800;9.680;2022-07-06T01:15:29;3.80;;;3.60;;
15159;SDS011;7680;48.800;9.680;2022-07-06T01:18:03;3.85;;;3.65;;
15159;SDS011;7680;48.800;9.680;2022-07-06T01:20:38;4.43;;;4.03;;
15159;SDS011;7680;48.800;9.680;2022-07-06T01:23:11;4.18;;;3.88;;
15159;SDS011;7680;48.800;9.680;2022-07-06T01:25:45;4.60;;;4.30;;
15159;SDS011;7680;48.800;9.680;2022-07-06T01:28:18;3.90;;;3.60;;
15159;SDS011;7680;48.800;9.680;2022-07-06T01:30:51;4.10;;;3.80;;
15159;SDS011;7680;48.800;9.680;2022-07-06T01:33:24;3.85;;;3.60;;
15159;SDS011;7680;48.800;9.680;2022-07-06T01:35:59;4.32;;;4.00;;
15159;SDS011;7680;48.800;9.680;2022-07-06T01:38:32;4.43;;;4.03;;
15159;SDS011;7680;48.800;9.680;2022-07-06T01:41:17;4.13;;;3.92;;
15159;SDS011;7680;48.800;9.680;2022-07-06T01:43:51;3.95;;;3.65;;
15159;SDS011;7680;48.800;9.680;2022-07-06T01:46:24;4.10;;;3.80;;
15159;SDS011;7680;48.800;9.680;2022-07-06T01:48:58;4.15;;;3.85;;
15159;SDS011;7680;48.800;9.680;2022-07-06T01:51:32;4.22;;;3.92;;
15159;SDS011;7680;48.800;9.680;2022-07-06T01:54:06;4.00;;;3.80;;
15159;SDS011;7680;48.800;9.680;2022-07-06T01:56:39;3.97;;;3.70;;
15159;SDS011;7680;48.800;9.680;2022-07-06T01:59:12;3.65;;;3.45;;
15159;SDS011;7680;48.800;9.680;2022-07-06T02:01:45;4.30;;;4.00;;
15159;SDS011;7680;48.800;9.680;2022-07-06T02:04:18;4.13;;;3.92;;
15159;SDS011;7680;48.800;9.680;2022-07-06T02:06:53;4.53;;;4.13;;
15159;SDS011;7680;48.800;9.680;2022-07-06T02:09:26;4.60;;;4.30;;
15159;SDS011;7680;48.800;9.680;2022-07-06T02:12:00;4.40;;;4.00;;
15159;SDS011;7680;48.800;9.680;2022-07-06T02:14:34;4.00;;;3.80;;
15159;SDS011;7680;48.800;9.680;2022-07-06T02:17:07;4.78;;;4.30;;
15159;SDS011;7680;48.800;9.680;2022-07-06T02:19:40;4.45;;;4.20;;
15159;SDS011;7680;48.800;9.680;2022-07-06T02:22:15;4.55;;;3.88;;
15159;SDS011;7680;48.800;9.680;2022-07-06T02:24:48;4.25;;;3.85;;
15159;SDS011;7680;48.800;9.680;2022-07-06T02:27:21;4.80;;;4.07;;
15159;SDS011;7680;48.800;9.680;2022-07-06T02:29:54;4.82;;;4.40;;
15159;SDS011;7680;48.800;9.680;2022-07-06T02:32:27;4.47;;;4.07;;
15159;SDS011;7680;48.800;9.680;2022-07-06T02:35:01;4.50;;;4.10;;
15159;SDS011;7680;48.800;9.680;2022-07-06T02:37:35;4.53;;;4.20;;
15159;SDS011;7680;48.800;9.680;2022-07-06T02:40:09;4.82;;;4.43;;
15159;SDS011;7680;48.800;9.680;2022-07-06T02:42:43;5.10;;;4.32;;
15159;SDS011;7680;48.800;9.680;2022-07-06T02:45:16;4.53;;;4.22;;
15159;SDS011;7680;48.800;9.680;2022-07-06T02:47:50;4.53;;;4.13;;
15159;SDS011;7680;48.800;9.680;2022-07-06T02:50:24;4.60;;;4.20;;
15159;SDS011;7680;48.800;9.680;2022-07-06T02:52:59;4.78;;;4.47;;
15159;SDS011;7680;48.800;9.680;2022-07-06T02:55:33;4.70;;;4.40;;
15159;SDS011;7680;48.800;9.680;2022-07-06T02:58:06;4.85;;;4.53;;
15159;SDS011;7680;48.800;9.680;2022-07-06T03:00:39;4.85;;;4.45;;
15159;SDS011;7680;48.800;9.680;2022-07-06T03:03:12;5.13;;;4.72;;
15159;SDS011;7680;48.800;9.680;2022-07-06T03:05:46;5.03;;;4.57;;
15159;SDS011;7680;48.800;9.680;2022-07-06T03:08:21;5.05;;;4.53;;
15159;SDS011;7680;48.800;9.680;2022-07-06T03:10:55;4.85;;;4.55;;
15159;SDS011;7680;48.800;9.680;2022-07-06T03:13:28;4.90;;;4.60;;
15159;SDS011;7680;48.800;9.680;2022-07-06T03:16:01;4.82;;;4.53;;
15159;SDS011;7680;48.800;9.680;2022-07-06T03:18:35;4.60;;;4.30;;
15159;SDS011;7680;48.800;9.680;2022-07-06T03:21:08;4.90;;;4.60;;
15159;SDS011;7680;48.800;9.680;2022-07-06T03:23:43;5.43;;;4.95;;
15159;SDS011;7680;48.800;9.680;2022-07-06T03:26:16;4.70;;;4.40;;
15159;SDS011;7680;48.800;9.680;2022-07-06T03:28:49;5.03;;;4.65;;
15159;SDS011;7680;48.800;9.680;2022-07-06T03:31:22;4.63;;;4.32;;
15159;SDS011;7680;48.800;9.680;2022-07-06T03:33:55;4.93;;;4.47;;
15159;SDS011;7680;48.800;9.680;2022-07-06T03:36:29;4.60;;;4.40;;
15159;SDS011;7680;48.800;9.680;2022-07-06T03:39:10;4.70;;;4.40;;
15159;SDS011;7680;48.800;9.680;2022-07-06T03:41:43;4.70;;;4.40;;
15159;SDS011;7680;48.800;9.680;2022-07-06T03:44:16;5.00;;;4.53;;
15159;SDS011;7680;48.800;9.680;2022-07-06T03:46:49;5.18;;;4.88;;
15159;SDS011;7680;48.800;9.680;2022-07-06T03:49:26;4.55;;;4.13;;
15159;SDS011;7680;48.800;9.680;2022-07-06T03:51:59;5.75;;;5.35;;
15159;SDS011;7680;48.800;9.680;2022-07-06T03:54:34;4.75;;;4.45;;
15159;SDS011;7680;48.800;9.680;2022-07-06T03:57:07;4.93;;;4.50;;
15159;SDS011;7680;48.800;9.680;2022-07-06T03:59:40;4.47;;;4.13;;
15159;SDS011;7680;48.800;9.680;2022-07-06T04:02:13;5.07;;;4.68;;
15159;SDS011;7680;48.800;9.680;2022-07-06T04:04:47;5.45;;;4.97;;
15159;SDS011;7680;48.800;9.680;2022-07-06T04:07:20;5.45;;;5.05;;
15159;SDS011;7680;48.800;9.680;2022-07-06T04:09:54;5.15;;;4.85;;
15159;SDS011;7680;48.800;9.680;2022-07-06T04:12:28;5.03;;;4.63;;
15159;SDS011;7680;48.800;9.680;2022-07-06T04:15:01;4.95;;;4.55;;
15159;SDS011;7680;48.800;9.680;2022-07-06T04:17:34;4.93;;;4.63;;
15159;SDS011;7680;48.800;9.680;2022-07-06T04:20:27;5.20;;;4.90;;
15159;SDS011;7680;48.800;9.680;2022-07-06T04:23:00;5.10;;;4.80;;
15159;SDS011;7680;48.800;9.680;2022-07-06T04:25:35;5.10;;;4.63;;
15159;SDS011;7680;48.800;9.680;2022-07-06T04:28:08;5.40;;;5.00;;
15159;SDS011;7680;48.800;9.680;2022-07-06T04:30:41;5.47;;;5.05;;
15159;SDS011;7680;48.800;9.680;2022-07-06T04:33:15;5.55;;;5.03;;
15159;SDS011;7680;48.800;9.680;2022-07-06T04:35:48;5.10;;;4.80;;
15159;SDS011;7680;48.800;9.680;2022-07-06T04:38:21;5.72;;;5.25;;
15159;SDS011;7680;48.800;9.680;2022-07-06T04:40:56;5.30;;;5.00;;
15159;SDS011;7680;48.800;9.680;2022-07-06T04:43:29;5.05;;;4.75;;
15159;SDS011;7680;48.800;9.680;2022-07-06T04:46:03;4.90;;;4.60;;
15159;SDS011;7680;48.800;9.680;2022-07-06T04:48:36;5.20;;;4.70;;
15159;SDS011;7680;48.800;9.680;2022-07-06T04:51:10;4.90;;;4.50;;
15159;SDS011;7680;48.800;9.680;2022-07-06T04:53:45;5.28;;;4.90;;
15159;SDS011;7680;48.800;9.680;2022-07-06T04:56:19;4.95;;;4.57;;
15159;SDS011;7680;48.800;9.680;2022-07-06T04:58:52;4.55;;;4.18;;
15159;SDS011;7680;48.800;9.680;2022-07-06T05:01:25;4.50;;;4.20;;
15159;SDS011;7680;48.800;9.680;2022-07-06T05:03:59;4.50;;;4.10;;
15159;SDS011;7680;48.800;9.680;2022-07-06T05:06:32;4.70;;;4.25;;
15159;SDS011;7680;48.800;9.680;2022-07-06T05:09:05;4.78;;;3.97;;
15159;SDS011;7680;48.800;9.680;2022-07-06T05:11:40;4.30;;;4.00;;
15159;SDS011;7680;48.800;9.680;2022-07-06T05:14:13;4.00;;;3.70;;
15159;SDS011;7680;48.800;9.680;2022-07-06T05:16:46;3.53;;;3.22;;
15159;SDS011;7680;48.800;9.680;2022-07-06T05:19:19;3.50;;;3.20;;
15159;SDS011;7680;48.800;9.680;2022-07-06T05:21:53;4.00;;;3.58;;
15159;SDS011;7680;48.800;9.680;2022-07-06T05:24:26;3.90;;;3.60;;
15159;SDS011;7680;48.800;9.680;2022-07-06T05:27:00;3.88;;;3.58;;
15159;SDS011;7680;48.800;9.680;2022-07-06T05:29:34;4.15;;;3.85;;
15159;SDS011;7680;48.800;9.680;2022-07-06T05:32:07;3.50;;;3.30;;
15159;SDS011;7680;48.800;9.680;2022-07-06T05:34:40;3.30;;;3.05;;
15159;SDS011;7680;48.800;9.680;2022-07-06T05:37:13;3.35;;;3.15;;
15159;SDS011;7680;48.800;9.680;2022-07-06T05:39:46;3.58;;;3.38;;
15159;SDS011;7680;48.800;9.680;2022-07-06T05:42:22;4.05;;;3.55;;
15159;SDS011;7680;48.800;9.680;2022-07-06T05:44:56;4.53;;;3.97;;
15159;SDS011;7680;48.800;9.680;2022-07-06T05:47:29;3.88;;;3.60;;
15159;SDS011;7680;48.800;9.680;2022-07-06T05:50:19;3.75;;;3.45;;
15159;SDS011;7680;48.800;9.680;2022-07-06T05:52:56;3.63;;;3.42;;
15159;SDS011;7680;48.800;9.680;2022-07-06T05:55:41;4.05;;;3.72;;
15159;SDS011;7680;48.800;9.680;2022-07-06T05:58:16;4.55;;;3.72;;
15159;SDS011;7680;48.800;9.680;2022-07-06T06:00:49;6.10;;;3.95;;
15159;SDS011;7680;48.800;9.680;2022-07-06T06:03:22;3.65;;;3.40;;
15159;SDS011;7680;48.800;9.680;2022-07-06T06:05:56;4.00;;;3.70;;
15159;SDS011;7680;48.800;9.680;2022-07-06T06:08:29;4.88;;;3.50;;
15159;SDS011;7680;48.800;9.680;2022-07-06T06:11:02;3.88;;;3.55;;
15159;SDS011;7680;48.800;9.680;2022-07-06T06:13:42;3.88;;;3.58;;
15159;SDS011;7680;48.800;9.680;2022-07-06T06:16:16;3.92;;;3.50;;
15159;SDS011;7680;48.800;9.680;2022-07-06T06:18:49;3.40;;;3.20;;
15159;SDS011;7680;48.800;9.680;2022-07-06T06:21:22;4.03;;;3.40;;
15159;SDS011;7680;48.800;9.680;2022-07-06T06:23:55;4.05;;;3.60;;
15159;SDS011;7680;48.800;9.680;2022-07-06T06:26:28;4.07;;;3.10;;
15159;SDS011;7680;48.800;9.680;2022-07-06T06:29:03;4.35;;;3.03;;
15159;SDS011;7680;48.800;9.680;2022-07-06T06:31:36;3.40;;;3.10;;
15159;SDS011;7680;48.800;9.680;2022-07-06T06:34:12;3.45;;;3.15;;
15159;SDS011;7680;48.800;9.680;2022-07-06T06:36:45;3.17;;;2.92;;
15159;SDS011;7680;48.800;9.680;2022-07-06T06:39:18;3.63;;;3.25;;
15159;SDS011;7680;48.800;9.680;2022-07-06T06:41:51;3.45;;;2.80;;
15159;SDS011;7680;48.800;9.680;2022-07-06T06:44:26;3.10;;;2.90;;
15159;SDS011;7680;48.800;9.680;2022-07-06T06:46:59;3.50;;;2.72;;
15159;SDS011;7680;48.800;9.680;2022-07-06T06:49:32;4.32;;;3.10;;
15159;SDS011;7680;48.800;9.680;2022-07-06T06:52:05;3.25;;;3.00;;
15159;SDS011;7680;48.800;9.680;2022-07-06T06:54:58;3.47;;;3.17;;
15159;SDS011;7680;48.800;9.680;2022-07-06T06:57:32;3.95;;;2.80;;
15159;SDS011;7680;48.800;9.680;2022-07-06T07:00:07;3.53;;;3.20;;
15159;SDS011;7680;48.800;9.680;2022-07-06T07:02:41;3.85;;;2.85;;
15159;SDS011;7680;48.800;9.680;2022-07-06T07:05:14;3.08;;;2.78;;
15159;SDS011;7680;48.800;9.680;2022-07-06T07:07:47;2.90;;;2.70;;
15159;SDS011;7680;48.800;9.680;2022-07-06T07:10:21;3.05;;;2.85;;
15159;SDS011;7680;48.800;9.680;2022-07-06T07:12:54;3.30;;;3.00;;
15159;SDS011;7680;48.800;9.680;2022-07-06T07:15:28;3.47;;;2.72;;
15159;SDS011;7680;48.800;9.680;2022-07-06T07:18:01;3.05;;;2.75;;
15159;SDS011;7680;48.800;9.680;2022-07-06T07:20:35;3.50;;;2.70;;
15159;SDS011;7680;48.800;9.680;2022-07-06T07:23:08;3.00;;;2.58;;
15159;SDS011;7680;48.800;9.680;2022-07-06T07:25:41;3.13;;;2.85;;
15159;SDS011;7680;48.800;9.680;2022-07-06T07:28:14;3.92;;;2.80;;
15159;SDS011;7680;48.800;9.680;2022-07-06T07:30:49;3.40;;;2.90;;
15159;SDS011;7680;48.800;9.680;2022-07-06T07:33:22;3.85;;;2.72;;
15159;SDS011;7680;48.800;9.680;2022-07-06T07:35:56;4.05;;;3.10;;
15159;SDS011;7680;48.800;9.680;2022-07-06T07:38:30;3.95;;;2.80;;
15159;SDS011;7680;48.800;9.680;2022-07-06T07:41:03;2.72;;;2.50;;
15159;SDS011;7680;48.800;9.680;2022-07-06T07:43:37;3.45;;;2.88;;
15159;SDS011;7680;48.800;9.680;2022-07-06T07:46:11;3.10;;;2.90;;
15159;SDS011;7680;48.800;9.680;2022-07-06T07:48:45;3.08;;;2.70;;
15159;SDS011;7680;48.800;9.680;2022-07-06T07:51:18;6.32;;;2.88;;
15159;SDS011;7680;48.800;9.680;2022-07-06T07:53:51;3.13;;;2.75;;
15159;SDS011;7680;48.800;9.680;2022-07-06T07:56:24;3.53;;;3.00;;
15159;SDS011;7680;48.800;9.680;2022-07-06T07:58:57;2.85;;;2.50;;
15159;SDS011;7680;48.800;9.680;2022-07-06T08:01:32;3.72;;;2.53;;
15159;SDS011;7680;48.800;9.680;2022-07-06T08:04:06;3.15;;;2.67;;
15159;SDS011;7680;48.800;9.680;2022-07-06T08:06:40;3.28;;;2.97;;
15159;SDS011;7680;48.800;9.680;2022-07-06T08:09:13;3.13;;;2.72;;
15159;SDS011;7680;48.800;9.680;2022-07-06T08:11:47;3.78;;;3.15;;
15159;SDS011;7680;48.800;9.680;2022-07-06T08:14:21;10.20;;;4.47;;
15159;SDS011;7680;48.800;9.680;2022-07-06T08:16:55;7.50;;;4.00;;
15159;SDS011;7680;48.800;9.680;2022-07-06T08:19:28;3.75;;;2.72;;
15159;SDS011;7680;48.800;9.680;2022-07-06T08:22:02;3.17;;;2.50;;
15159;SDS011;7680;48.800;9.680;2022-07-06T08:24:38;2.67;;;2.47;;
15159;SDS011;7680;48.800;9.680;2022-07-06T08:27:11;2.50;;;2.30;;
15159;SDS011;7680;48.800;9.680;2022-07-06T08:29:44;3.83;;;2.50;;
15159;SDS011;7680;48.800;9.680;2022-07-06T08:32:19;3.17;;;2.60;;
15159;SDS011;7680;48.800;9.680;2022-07-06T08:35:12;3.78;;;2.63;;
15159;SDS011;7680;48.800;9.680;2022-07-06T08:37:45;4.80;;;2.60;;
15159;SDS011;7680;48.800;9.680;2022-07-06T08:40:18;4.63;;;2.53;;
15159;SDS011;7680;48.800;9.680;2022-07-06T08:42:53;4.55;;;3.17;;
15159;SDS011;7680;48.800;9.680;2022-07-06T08:45:26;3.10;;;2.75;;
15159;SDS011;7680;48.800;9.680;2022-07-06T08:48:04;3.35;;;2.70;;
15159;SDS011;7680;48.800;9.680;2022-07-06T08:50:39;2.90;;;2.70;;
15159;SDS011;7680;48.800;9.680;2022-07-06T08:53:12;3.38;;;2.80;;
15159;SDS011;7680;48.800;9.680;2022-07-06T08:55:45;5.78;;;2.95;;
15159;SDS011;7680;48.800;9.680;2022-07-06T08:58:20;5.40;;;2.60;;
15159;SDS011;7680;48.800;9.680;2022-07-06T09:00:56;3.17;;;2.85;;
15159;SDS011;7680;48.800;9.680;2022-07-06T09:03:31;4.32;;;2.50;;
15159;SDS011;7680;48.800;9.680;2022-07-06T09:06:04;4.00;;;2.75;;
15159;SDS011;7680;48.800;9.680;2022-07-06T09:08:40;3.63;;;2.80;;
15159;SDS011;7680;48.800;9.680;2022-07-06T09:11:13;3.38;;;3.08;;
15159;SDS011;7680;48.800;9.680;2022-07-06T09:13:46;3.85;;;3.17;;
15159;SDS011;7680;48.800;9.680;2022-07-06T09:16:24;4.82;;;2.70;;
15159;SDS011;7680;48.800;9.680;2022-07-06T09:19:11;3.08;;;2.72;;
15159;SDS011;7680;48.800;9.680;2022-07-06T09:21:46;3.63;;;2.90;;
15159;SDS011;7680;48.800;9.680;2022-07-06T09:24:20;3.70;;;2.60;;
15159;SDS011;7680;48.800;9.680;2022-07-06T09:26:54;3.50;;;2.80;;
15159;SDS011;7680;48.800;9.680;2022-07-06T09:29:29;2.75;;;2.55;;
15159;SDS011;7680;48.800;9.680;2022-07-06T09:32:03;2.65;;;2.55;;
15159;SDS011;7680;48.800;9.680;2022-07-06T09:34:42;4.53;;;2.80;;
15159;SDS011;7680;48.800;9.680;2022-07-06T09:37:16;2.80;;;2.53;;
15159;SDS011;7680;48.800;9.680;2022-07-06T09:39:56;3.53;;;2.67;;
15159;SDS011;7680;48.800;9.680;2022-07-06T09:42:30;3.38;;;3.08;;
15159;SDS011;7680;48.800;9.680;2022-07-06T09:45:05;2.83;;;2.63;;
15159;SDS011;7680;48.800;9.680;2022-07-06T09:47:45;3.15;;;2.80;;
15159;SDS011;7680;48.800;9.680;2022-07-06T09:50:20;3.50;;;2.85;;
15159;SDS011;7680;48.800;9.680;2022-07-06T09:52:54;4.07;;;3.15;;
15159;SDS011;7680;48.800;9.680;2022-07-06T09:55:27;3.05;;;2.85;;
15159;SDS011;7680;48.800;9.680;2022-07-06T09:58:02;3.83;;;3.13;;
15159;SDS011;7680;48.800;9.680;2022-07-06T10:00:36;3.03;;;2.83;;
15159;SDS011;7680;48.800;9.680;2022-07-06T10:03:09;4.10;;;2.80;;
15159;SDS011;7680;48.800;9.680;2022-07-06T10:05:45;3.58;;;2.80;;
15159;SDS011;7680;48.800;9.680;2022-07-06T10:08:21;3.03;;;2.83;;
15159;SDS011;7680;48.800;9.680;2022-07-06T10:10:55;3.03;;;2.83;;
15159;SDS011;7680;48.800;9.680;2022-07-06T10:13:28;3.10;;;2.90;;
15159;SDS011;7680;48.800;9.680;2022-07-06T10:16:03;3.13;;;2.83;;
15159;SDS011;7680;48.800;9.680;2022-07-06T10:18:37;6.43;;;2.72;;
15159;SDS011;7680;48.800;9.680;2022-07-06T10:21:14;3.10;;;2.78;;
15159;SDS011;7680;48.800;9.680;2022-07-06T10:23:49;3.90;;;2.75;;
15159;SDS011;7680;48.800;9.680;2022-07-06T10:26:23;3.13;;;2.78;;
15159;SDS011;7680;48.800;9.680;2022-07-06T10:28:56;4.45;;;2.90;;
15159;SDS011;7680;48.800;9.680;2022-07-06T10:31:32;3.35;;;2.90;;
15159;SDS011;7680;48.800;9.680;2022-07-06T10:34:10;2.88;;;2.67;;
15159;SDS011;7680;48.800;9.680;2022-07-06T10:36:49;4.97;;;3.35;;
15159;SDS011;7680;48.800;9.680;2022-07-06T10:39:34;3.83;;;2.65;;
15159;SDS011;7680;48.800;9.680;2022-07-06T10:42:39;3.30;;;2.97;;
15159;SDS011;7680;48.800;9.680;2022-07-06T10:45:14;4.70;;;3.00;;
15159;SDS011;7680;48.800;9.680;2022-07-06T10:50:50;3.00;;;2.70;;
15159;SDS011;7680;48.800;9.680;2022-07-06T10:53:27;4.25;;;2.80;;
15159;SDS011;7680;48.800;9.680;2022-07-06T10:56:05;4.05;;;2.80;;
15159;SDS011;7680;48.800;9.680;2022-07-06T10:58:41;2.80;;;2.60;;
15159;SDS011;7680;48.800;9.680;2022-07-06T11:01:24;4.38;;;2.90;;
15159;SDS011;7680;48.800;9.680;2022-07-06T11:04:04;3.50;;;3.20;;
15159;SDS011;7680;48.800;9.680;2022-07-06T11:06:40;3.78;;;2.92;;
15159;SDS011;7680;48.800;9.680;2022-07-06T11:09:15;3.25;;;2.83;;
15159;SDS011;7680;48.800;9.680;2022-07-06T11:11:48;5.10;;;2.80;;
15159;SDS011;7680;48.800;9.680;2022-07-06T11:14:21;3.90;;;3.08;;
15159;SDS011;7680;48.800;9.680;2022-07-06T11:17:01;4.05;;;2.97;;
15159;SDS011;7680;48.800;9.680;2022-07-06T11:19:36;3.47;;;3.13;;
15159;SDS011;7680;48.800;9.680;2022-07-06T11:22:10;3.42;;;2.83;;
15159;SDS011;7680;48.800;9.680;2022-07-06T11:24:45;3.33;;;3.08;;
15159;SDS011;7680;48.800;9.680;2022-07-06T11:27:18;2.95;;;2.13;;
15159;SDS011;7680;48.800;9.680;2022-07-06T11:29:54;3.20;;;2.90;;
15159;SDS011;7680;48.800;9.680;2022-07-06T11:32:28;3.75;;;3.10;;
15159;SDS011;7680;48.800;9.680;2022-07-06T11:35:02;3.58;;;2.50;;
15159;SDS011;7680;48.800;9.680;2022-07-06T11:37:36;4.07;;;2.80;;
15159;SDS011;7680;48.800;9.680;2022-07-06T11:40:11;4.53;;;2.95;;
15159;SDS011;7680;48.800;9.680;2022-07-06T11:42:52;3.08;;;2.53;;
15159;SDS011;7680;48.800;9.680;2022-07-06T11:45:26;2.75;;;2.55;;
15159;SDS011;7680;48.800;9.680;2022-07-06T11:48:09;3.03;;;2.83;;
15159;SDS011;7680;48.800;9.680;2022-07-06T11:50:42;3.13;;;2.60;;
15159;SDS011;7680;48.800;9.680;2022-07-06T11:53:16;3.13;;;2.83;;
15159;SDS011;7680;48.800;9.680;2022-07-06T11:55:50;3.08;;;2.78;;
15159;SDS011;7680;48.800;9.680;2022-07-06T11:58:23;3.10;;;2.80;;
15159;SDS011;7680;48.800;9.680;2022-07-06T12:01:03;3.53;;;2.92;;
15159;SDS011;7680;48.800;9.680;2022-07-06T12:03:37;2.95;;;2.50;;
15159;SDS011;7680;48.800;9.680;2022-07-06T12:06:15;4.22;;;2.60;;
15159;SDS011;7680;48.800;9.680;2022-07-06T12:08:53;2.75;;;2.55;;
15159;SDS011;7680;48.800;9.680;2022-07-06T12:11:29;3.22;;;2.85;;
15159;SDS011;7680;48.800;9.680;2022-07-06T12:14:11;4.38;;;2.67;;
15159;SDS011;7680;48.800;9.680;2022-07-06T12:16:46;3.92;;;2.65;;
15159;SDS011;7680;48.800;9.680;2022-07-06T12:19:22;3.35;;;2.90;;
15159;SDS011;7680;48.800;9.680;2022-07-06T12:21:55;4.57;;;2.70;;
15159;SDS011;7680;48.800;9.680;2022-07-06T12:24:29;3.45;;;3.03;;
15159;SDS011;7680;48.800;9.680;2022-07-06T12:27:13;4.40;;;2.90;;
15159;SDS011;7680;48.800;9.680;2022-07-06T12:29:48;3.38;;;3.10;;
15159;SDS011;7680;48.800;9.680;2022-07-06T12:32:21;3.53;;;2.95;;
15159;SDS011;7680;48.800;9.680;2022-07-06T12:35:02;4.18;;;2.67;;
15159;SDS011;7680;48.800;9.680;2022-07-06T12:37:35;2.88;;;2.65;;
15159;SDS011;7680;48.800;9.680;2022-07-06T12:40:11;3.35;;;3.05;;
15159;SDS011;7680;48.800;9.680;2022-07-06T12:42:47;3.65;;;2.60;;
15159;SDS011;7680;48.800;9.680;2022-07-06T12:45:25;3.00;;;2.58;;
15159;SDS011;7680;48.800;9.680;2022-07-06T12:47:59;3.60;;;2.63;;
15159;SDS011;7680;48.800;9.680;2022-07-06T12:50:35;3.00;;;2.80;;
15159;SDS011;7680;48.800;9.680;2022-07-06T12:53:23;2.83;;;2.55;;
15159;SDS011;7680;48.800;9.680;2022-07-06T12:56:08;2.60;;;2.40;;
15159;SDS011;7680;48.800;9.680;2022-07-06T12:58:55;3.33;;;3.03;;
15159;SDS011;7680;48.800;9.680;2022-07-06T13:01:29;3.70;;;2.67;;
15159;SDS011;7680;48.800;9.680;2022-07-06T13:04:06;3.28;;;2.97;;
15159;SDS011;7680;48.800;9.680;2022-07-06T13:06:40;2.97;;;2.50;;
15159;SDS011;7680;48.800;9.680;2022-07-06T13:09:13;3.72;;;2.90;;
15159;SDS011;7680;48.800;9.680;2022-07-06T13:11:48;4.60;;;3.10;;
15159;SDS011;7680;48.800;9.680;2022-07-06T13:14:22;3.97;;;3.00;;
15159;SDS011;7680;48.800;9.680;2022-07-06T13:16:56;2.97;;;2.78;;
15159;SDS011;7680;48.800;9.680;2022-07-06T13:19:29;4.13;;;2.80;;
15159;SDS011;7680;48.800;9.680;2022-07-06T13:22:02;3.95;;;2.92;;
15159;SDS011;7680;48.800;9.680;2022-07-06T13:24:36;4.20;;;2.85;;
15159;SDS011;7680;48.800;9.680;2022-07-06T13:27:11;3.88;;;2.90;;
15159;SDS011;7680;48.800;9.680;2022-07-06T13:29:46;4.20;;;3.08;;
15159;SDS011;7680;48.800;9.680;2022-07-06T13:32:19;3.83;;;2.95;;
15159;SDS011;7680;48.800;9.680;2022-07-06T13:34:53;3.90;;;3.45;;
15159;SDS011;7680;48.800;9.680;2022-07-06T13:37:26;3.50;;;3.10;;
15159;SDS011;7680;48.800;9.680;2022-07-06T13:40:00;3.72;;;3.42;;
15159;SDS011;7680;48.800;9.680;2022-07-06T13:42:33;3.63;;;3.30;;
15159;SDS011;7680;48.800;9.680;2022-07-06T13:45:08;4.30;;;3.15;;
15159;SDS011;7680;48.800;9.680;2022-07-06T13:47:42;4.03;;;3.33;;
15159;SDS011;7680;48.800;9.680;2022-07-06T13:50:15;3.58;;;3.28;;
15159;SDS011;7680;48.800;9.680;2022-07-06T13:52:48;4.18;;;3.35;;
15159;SDS011;7680;48.800;9.680;2022-07-06T13:55:21;3.75;;;3.25;;
15159;SDS011;7680;48.800;9.680;2022-07-06T13:57:54;3.90;;;3.60;;
15159;SDS011;7680;48.800;9.680;2022-07-06T14:00:29;3.78;;;3.25;;
15159;SDS011;7680;48.800;9.680;2022-07-06T14:03:02;3.85;;;3.55;;
15159;SDS011;7680;48.800;9.680;2022-07-06T14:05:35;5.50;;;3.30;;
15159;SDS011;7680;48.800;9.680;2022-07-06T14:08:08;6.00;;;3.47;;
15159;SDS011;7680;48.800;9.680;2022-07-06T14:10:42;3.80;;;3.40;;
15159;SDS011;7680;48.800;9.680;2022-07-06T14:13:15;5.22;;;3.58;;
15159;SDS011;7680;48.800;9.680;2022-07-06T14:15:51;4.35;;;3.83;;
15159;SDS011;7680;48.800;9.680;2022-07-06T14:18:25;3.72;;;3.40;;
15159;SDS011;7680;48.800;9.680;2022-07-06T14:20:58;5.05;;;3.50;;
15159;SDS011;7680;48.800;9.680;2022-07-06T14:23:32;4.20;;;3.40;;
15159;SDS011;7680;48.800;9.680;2022-07-06T14:26:05;3.88;;;3.20;;
15159;SDS011;7680;48.800;9.680;2022-07-06T14:28:39;4.68;;;3.40;;
15159;SDS011;7680;48.800;9.680;2022-07-06T14:31:13;3.70;;;3.40;;
15159;SDS011;7680;48.800;9.680;2022-07-06T14:33:51;3.50;;;3.20;;
15159;SDS011;7680;48.800;9.680;2022-07-06T14:36:24;3.60;;;2.92;;
15159;SDS011;7680;48.800;9.680;2022-07-06T14:38:57;4.00;;;3.28;;
15159;SDS011;7680;48.800;9.680;2022-07-06T14:41:31;3.30;;;3.00;;
15159;SDS011;7680;48.800;9.680;2022-07-06T14:44:06;7.10;;;3.80;;
15159;SDS011;7680;48.800;9.680;2022-07-06T14:46:41;5.80;;;3.40;;
15159;SDS011;7680;48.800;9.680;2022-07-06T14:49:14;3.83;;;3.33;;
15159;SDS011;7680;48.800;9.680;2022-07-06T14:51:51;4.60;;;3.40;;
15159;SDS011;7680;48.800;9.680;2022-07-06T14:54:25;2.97;;;2.78;;
15159;SDS011;7680;48.800;9.680;2022-07-06T14:56:58;3.40;;;3.10;;
15159;SDS011;7680;48.800;9.680;2022-07-06T14:59:31;4.93;;;3.58;;
15159;SDS011;7680;48.800;9.680;2022-07-06T15:02:06;3.40;;;3.10;;
15159;SDS011;7680;48.800;9.680;2022-07-06T15:04:39;3.80;;;3.40;;
15159;SDS011;7680;48.800;9.680;2022-07-06T15:07:12;4.75;;;3.38;;
15159;SDS011;7680;48.800;9.680;2022-07-06T15:09:45;3.63;;;3.25;;
15159;SDS011;7680;48.800;9.680;2022-07-06T15:12:18;3.72;;;3.40;;
15159;SDS011;7680;48.800;9.680;2022-07-06T15:14:52;3.72;;;3.30;;
15159;SDS011;7680;48.800;9.680;2022-07-06T15:17:26;4.38;;;3.33;;
15159;SDS011;7680;48.800;9.680;2022-07-06T15:20:00;3.47;;;3.03;;
15159;SDS011;7680;48.800;9.680;2022-07-06T15:22:34;3.35;;;3.13;;
15159;SDS011;7680;48.800;9.680;2022-07-06T15:25:07;3.63;;;2.90;;
15159;SDS011;7680;48.800;9.680;2022-07-06T15:27:41;3.72;;;2.72;;
15159;SDS011;7680;48.800;9.680;2022-07-06T15:30:15;3.80;;;3.10;;
15159;SDS011;7680;48.800;9.680;2022-07-06T15:33:02;4.10;;;2.88;;
15159;SDS011;7680;48.800;9.680;2022-07-06T15:35:35;3.28;;;2.97;;
15159;SDS011;7680;48.800;9.680;2022-07-06T15:38:08;4.03;;;2.97;;
15159;SDS011;7680;48.800;9.680;2022-07-06T15:40:42;2.90;;;2.60;;
15159;SDS011;7680;48.800;9.680;2022-07-06T15:43:19;3.22;;;2.53;;
15159;SDS011;7680;48.800;9.680;2022-07-06T15:45:54;3.05;;;2.80;;
15159;SDS011;7680;48.800;9.680;2022-07-06T15:48:33;2.92;;;2.47;;